Time;durP1;ratioP1;P1;durP2;ratioP2;P2;SDS_P1;SDS_P2;PMS_P1;PMS_P2;Temp;Humidity;BMP_temperature;BMP_pressure;BME280_temperature;BME280_humidity;BME280_pressure;Samples;Min_cycle;Max_cycle;Signal;HPM_P1;HPM_P2
2022/07/16 00:02:15;;;;;;;;;;;21.00;69.50;;;;;;5014006;28;1267;-65
2022/07/16 00:04:40;;;;;;;;;;;21.00;69.50;;;;;;5014618;28;1025;-67
2022/07/16 00:07:06;;;;;;;;;;;21.00;69.50;;;;;;5015099;28;1397;-68
2022/07/16 00:09:31;;;;;;;;;;;21.00;69.50;;;;;;5014786;28;1265;-67
2022/07/16 00:11:56;;;;;;;;;;;21.00;69.50;;;;;;5014910;28;1189;-67
2022/07/16 00:14:22;;;;;;;;;;;21.00;69.50;;;;;;5014472;28;1362;-67
2022/07/16 00:16:47;;;;;;;;;;;21.00;69.60;;;;;;5014788;28;1906;-67
2022/07/16 00:19:15;;;;;;;;;;;21.00;69.60;;;;;;5014618;28;1282;-66
2022/07/16 00:21:42;;;;;;;;;;;21.00;69.60;;;;;;5014678;28;1425;-66
2022/07/16 00:24:07;;;;;;;;;;;21.00;69.60;;;;;;5014557;28;1052;-66
2022/07/16 00:26:33;;;;;;;;;;;21.00;69.60;;;;;;5014584;28;1237;-67
2022/07/16 00:28:59;;;;;;;;;;;21.00;69.60;;;;;;5014647;28;1276;-67
2022/07/16 00:31:24;;;;;;;;;;;21.00;69.60;;;;;;5014427;28;1390;-67
2022/07/16 00:33:49;;;;;;;;;;;21.00;69.70;;;;;;5014095;28;1304;-67
2022/07/16 00:36:15;;;;;;;;;;;21.00;69.70;;;;;;5014389;28;1898;-67
2022/07/16 00:38:40;;;;;;;;;;;21.00;69.70;;;;;;5014605;28;1431;-68
2022/07/16 00:41:16;;;;;;;;;;;21.00;69.70;;;;;;5014105;28;1386;-67
2022/07/16 00:43:48;;;;;;;;;;;21.00;69.70;;;;;;5014536;28;1279;-67
2022/07/16 00:46:14;;;;;;;;;;;21.00;69.70;;;;;;5012947;28;1116;-67
2022/07/16 00:48:40;;;;;;;;;;;21.00;69.80;;;;;;5014576;28;1330;-67
2022/07/16 00:51:06;;;;;;;;;;;21.00;69.80;;;;;;5014095;28;1333;-67
2022/07/16 00:53:32;;;;;;;;;;;21.00;69.80;;;;;;5014132;28;1095;-67
2022/07/16 00:55:57;;;;;;;;;;;21.00;69.80;;;;;;5013925;28;1910;-67
2022/07/16 00:58:23;;;;;;;;;;;21.00;69.80;;;;;;5013087;28;1358;-67
2022/07/16 01:00:48;;;;;;;;;;;21.00;69.80;;;;;;5013796;28;1261;-67
2022/07/16 01:03:13;;;;;;;;;;;21.00;69.80;;;;;;5014039;28;1141;-67
2022/07/16 01:05:39;;;;;;;;;;;21.00;69.80;;;;;;5012495;28;1156;-67
2022/07/16 01:08:04;;;;;;;;;;;21.00;69.90;;;;;;5014008;28;1295;-67
2022/07/16 01:10:30;;;;;;;;;;;21.00;69.90;;;;;;5013806;28;1472;-67
2022/07/16 01:12:59;;;;;;;;;;;21.00;69.90;;;;;;5012213;28;1349;-67
2022/07/16 01:15:24;;;;;;;;;;;21.00;69.90;;;;;;5012001;28;1973;-67
2022/07/16 01:17:49;;;;;;;;;;;21.00;69.90;;;;;;5013860;28;1091;-67
2022/07/16 01:20:15;;;;;;;;;;;21.00;69.90;;;;;;5013462;28;1352;-68
2022/07/16 01:22:41;;;;;;;;;;;21.00;70.00;;;;;;5013969;28;1341;-67
2022/07/16 01:25:08;;;;;;;;;;;21.00;70.00;;;;;;5013336;28;1032;-67
2022/07/16 01:27:33;;;;;;;;;;;21.00;70.00;;;;;;5013610;28;1413;-67
2022/07/16 01:29:59;;;;;;;;;;;21.00;70.00;;;;;;5013224;28;1396;-67
2022/07/16 01:32:24;;;;;;;;;;;21.00;70.10;;;;;;5012204;28;1376;-67
2022/07/16 01:34:50;;;;;;;;;;;21.00;70.00;;;;;;5013199;28;1406;-68
2022/07/16 01:37:15;;;;;;;;;;;21.00;70.10;;;;;;5013451;28;1969;-67
2022/07/16 01:39:41;;;;;;;;;;;21.00;70.00;;;;;;5013162;28;1610;-67
2022/07/16 01:42:08;;;;;;;;;;;21.00;70.10;;;;;;5048097;22;1863;-73
2022/07/16 01:44:34;;;;;;;;;;;21.00;70.10;;;;;;5003063;28;1405;-73
2022/07/16 01:47:00;;;;;;;;;;;21.00;70.00;;;;;;5031863;28;1207;-73
2022/07/16 01:49:29;;;;;;;;;;;21.00;70.10;;;;;;5034934;28;1220;-73
2022/07/16 01:51:54;;;;;;;;;;;21.00;70.10;;;;;;5033014;28;1221;-73
2022/07/16 01:54:20;;;;;;;;;;;21.00;70.10;;;;;;5031358;28;1130;-73
2022/07/16 01:56:45;;;;;;;;;;;21.00;70.20;;;;;;5022747;28;1909;-73
2022/07/16 01:59:11;;;;;;;;;;;21.00;70.10;;;;;;5012872;28;1189;-73
2022/07/16 02:01:36;;;;;;;;;;;21.00;70.10;;;;;;5011987;28;1230;-73
2022/07/16 02:04:02;;;;;;;;;;;21.00;70.20;;;;;;5012825;28;1169;-73
2022/07/16 02:06:27;;;;;;;;;;;21.00;70.10;;;;;;5013347;28;1122;-73
2022/07/16 02:08:53;;;;;;;;;;;21.00;70.10;;;;;;5013031;28;1095;-73
2022/07/16 02:11:18;;;;;;;;;;;21.00;70.20;;;;;;5012037;28;1291;-73
2022/07/16 02:13:44;;;;;;;;;;;21.00;70.20;;;;;;5026678;28;1159;-73
2022/07/16 02:16:09;;;;;;;;;;;21.00;70.20;;;;;;5024229;28;1894;-73
2022/07/16 02:18:35;;;;;;;;;;;21.00;70.20;;;;;;5012426;28;1088;-73
2022/07/16 02:21:00;;;;;;;;;;;21.00;70.20;;;;;;5023360;28;1299;-73
2022/07/16 02:23:26;;;;;;;;;;;21.00;70.20;;;;;;5012864;28;1143;-74
2022/07/16 02:25:51;;;;;;;;;;;21.00;70.20;;;;;;5024202;28;1189;-73
2022/07/16 02:28:17;;;;;;;;;;;21.00;70.20;;;;;;5037058;28;1031;-73
2022/07/16 02:30:43;;;;;;;;;;;21.00;70.20;;;;;;5036381;28;1277;-74
2022/07/16 02:33:09;;;;;;;;;;;21.00;70.30;;;;;;5036758;28;1170;-73
2022/07/16 02:35:34;;;;;;;;;;;21.00;70.30;;;;;;5026925;28;1959;-73
2022/07/16 02:38:00;;;;;;;;;;;21.00;70.30;;;;;;5043930;28;1443;-73
2022/07/16 02:40:26;;;;;;;;;;;21.00;70.30;;;;;;5023547;28;1353;-73
2022/07/16 02:42:51;;;;;;;;;;;21.00;70.30;;;;;;5033674;28;1123;-73
2022/07/16 02:45:16;;;;;;;;;;;21.00;70.30;;;;;;5016412;28;1107;-73
2022/07/16 02:47:42;;;;;;;;;;;21.00;70.40;;;;;;5016608;28;1423;-73
2022/07/16 02:50:08;;;;;;;;;;;21.00;70.30;;;;;;5015419;28;1367;-73
2022/07/16 02:52:33;;;;;;;;;;;21.00;70.40;;;;;;5015256;28;1211;-73
2022/07/16 02:54:59;;;;;;;;;;;21.00;70.40;;;;;;5016190;28;1128;-73
2022/07/16 02:57:24;;;;;;;;;;;21.00;70.40;;;;;;5015257;28;1898;-73
2022/07/16 02:59:50;;;;;;;;;;;21.00;70.40;;;;;;4998504;28;1121;-73
2022/07/16 03:02:15;;;;;;;;;;;21.00;70.40;;;;;;5015216;28;1194;-73
2022/07/16 03:04:40;;;;;;;;;;;21.00;70.40;;;;;;5015992;28;1142;-73
2022/07/16 03:07:06;;;;;;;;;;;21.00;70.40;;;;;;5015122;28;1124;-73
2022/07/16 03:09:31;;;;;;;;;;;21.00;70.40;;;;;;5023771;28;1067;-73
2022/07/16 03:11:57;;;;;;;;;;;21.00;70.40;;;;;;5021692;28;1254;-73
2022/07/16 03:14:22;;;;;;;;;;;21.00;70.40;;;;;;5022732;28;1113;-73
2022/07/16 03:16:48;;;;;;;;;;;21.00;70.40;;;;;;5020995;28;1969;-73
2022/07/16 03:19:14;;;;;;;;;;;21.00;70.40;;;;;;5021856;28;1107;-73
2022/07/16 03:21:39;;;;;;;;;;;21.00;70.50;;;;;;5034435;28;1306;-73
2022/07/16 03:24:05;;;;;;;;;;;21.00;70.50;;;;;;5034265;28;1080;-73
2022/07/16 03:26:30;;;;;;;;;;;21.00;70.50;;;;;;5035778;28;1170;-73
2022/07/16 03:28:55;;;;;;;;;;;21.00;70.50;;;;;;5035321;28;1146;-73
2022/07/16 03:31:21;;;;;;;;;;;21.00;70.50;;;;;;5034826;28;1275;-73
2022/07/16 03:33:46;;;;;;;;;;;21.00;70.50;;;;;;5038151;28;942;-73
2022/07/16 03:36:12;;;;;;;;;;;21.00;70.50;;;;;;5033841;28;1969;-73
2022/07/16 03:41:21;;;;;;;;;;;21.00;70.60;;;;;;5034556;28;1279;-73
2022/07/16 03:43:47;;;;;;;;;;;21.00;70.60;;;;;;5014455;28;1220;-73
2022/07/16 03:46:13;;;;;;;;;;;21.00;70.60;;;;;;5014036;28;1464;-73
2022/07/16 03:48:39;;;;;;;;;;;21.00;70.60;;;;;;5015605;28;1130;-73
2022/07/16 03:51:06;;;;;;;;;;;21.00;70.60;;;;;;5030078;28;1217;-73
2022/07/16 03:53:32;;;;;;;;;;;21.00;70.60;;;;;;5025921;28;1142;-73
2022/07/16 03:55:57;;;;;;;;;;;21.00;70.60;;;;;;5014856;28;1910;-73
2022/07/16 03:58:23;;;;;;;;;;;21.00;70.60;;;;;;5024806;28;1142;-72
2022/07/16 04:00:48;;;;;;;;;;;21.00;70.60;;;;;;5021564;28;1294;-72
2022/07/16 04:03:14;;;;;;;;;;;21.00;70.70;;;;;;5024743;28;1072;-72
2022/07/16 04:05:39;;;;;;;;;;;21.00;70.70;;;;;;5013543;28;1447;-72
2022/07/16 04:08:04;;;;;;;;;;;21.00;70.70;;;;;;5022956;28;1048;-73
2022/07/16 04:10:30;;;;;;;;;;;21.00;70.70;;;;;;5034467;28;1349;-72
2022/07/16 04:12:55;;;;;;;;;;;21.00;70.70;;;;;;5025921;28;1135;-73
2022/07/16 04:15:21;;;;;;;;;;;21.00;70.70;;;;;;5015329;28;1131;-73
2022/07/16 04:17:46;;;;;;;;;;;21.00;70.70;;;;;;4997289;28;1962;-72
2022/07/16 04:20:12;;;;;;;;;;;21.00;70.70;;;;;;5008384;28;1373;-72
2022/07/16 04:22:37;;;;;;;;;;;21.00;70.70;;;;;;5014733;28;1180;-73
2022/07/16 04:25:03;;;;;;;;;;;21.00;70.70;;;;;;5029829;28;1158;-72
2022/07/16 04:27:28;;;;;;;;;;;21.00;70.70;;;;;;5034837;28;1328;-72
2022/07/16 04:29:54;;;;;;;;;;;21.00;70.70;;;;;;5002024;28;1396;-73
2022/07/16 04:32:21;;;;;;;;;;;21.00;70.70;;;;;;5022456;28;1279;-73
2022/07/16 04:34:46;;;;;;;;;;;21.00;70.80;;;;;;5018278;28;1361;-72
2022/07/16 04:37:13;;;;;;;;;;;21.00;70.80;;;;;;5013309;28;1902;-73
2022/07/16 04:39:38;;;;;;;;;;;21.00;70.80;;;;;;5014897;28;1582;-72
2022/07/16 04:42:04;;;;;;;;;;;21.00;70.80;;;;;;5014301;28;1180;-72
2022/07/16 04:44:29;;;;;;;;;;;21.00;70.80;;;;;;5014142;28;1379;-73
2022/07/16 04:46:55;;;;;;;;;;;21.00;70.80;;;;;;5013653;28;1123;-73
2022/07/16 04:49:20;;;;;;;;;;;21.00;70.80;;;;;;5013382;28;1266;-72
2022/07/16 04:51:45;;;;;;;;;;;21.00;70.80;;;;;;5021254;28;1220;-72
2022/07/16 04:54:11;;;;;;;;;;;21.00;70.80;;;;;;5032983;28;1157;-72
2022/07/16 04:56:36;;;;;;;;;;;21.00;70.90;;;;;;5014332;28;1962;-73
2022/07/16 04:59:02;;;;;;;;;;;21.00;70.90;;;;;;5014030;28;1278;-72
2022/07/16 05:01:27;;;;;;;;;;;21.00;70.90;;;;;;5014194;28;1209;-72
2022/07/16 05:03:52;;;;;;;;;;;21.00;70.90;;;;;;5013800;28;1052;-73
2022/07/16 05:06:18;;;;;;;;;;;21.00;70.90;;;;;;5013980;28;1427;-70
2022/07/16 05:08:43;;;;;;;;;;;21.00;70.90;;;;;;5013774;28;1370;-71
2022/07/16 05:11:10;;;;;;;;;;;21.00;70.70;;;;;;5013592;28;1360;-70
2022/07/16 05:13:35;;;;;;;;;;;21.00;71.50;;;;;;5013793;28;1104;-71
2022/07/16 05:16:01;;;;;;;;;;;21.00;70.80;;;;;;5020671;28;1902;-73
2022/07/16 05:18:27;;;;;;;;;;;21.00;69.40;;;;;;5020167;28;1127;-72
2022/07/16 05:20:52;;;;;;;;;;;21.00;68.80;;;;;;5026142;28;1279;-73
2022/07/16 05:23:18;;;;;;;;;;;21.00;68.70;;;;;;5013599;28;1111;-73
2022/07/16 05:25:43;;;;;;;;;;;21.00;68.70;;;;;;5019179;28;1372;-74
2022/07/16 05:28:09;;;;;;;;;;;20.90;68.70;;;;;;5033353;28;1171;-74
2022/07/16 05:30:34;;;;;;;;;;;20.90;68.70;;;;;;5026226;28;1929;-71
2022/07/16 05:33:00;;;;;;;;;;;20.90;68.80;;;;;;5026941;28;1061;-72
2022/07/16 05:35:25;;;;;;;;;;;21.00;68.90;;;;;;5024398;28;1466;-71
2022/07/16 05:37:51;;;;;;;;;;;20.90;69.00;;;;;;5019692;28;1953;-71
2022/07/16 05:40:16;;;;;;;;;;;20.90;69.00;;;;;;5013539;28;1308;-71
2022/07/16 05:42:42;;;;;;;;;;;20.90;69.10;;;;;;5011870;28;1325;-73
2022/07/16 05:45:08;;;;;;;;;;;21.00;69.30;;;;;;5013041;28;1241;-74
2022/07/16 05:47:33;;;;;;;;;;;20.90;69.20;;;;;;5011923;28;1307;-75
2022/07/16 05:50:03;;;;;;;;;;;21.00;69.40;;;;;;5012564;28;1164;-67
2022/07/16 05:52:28;;;;;;;;;;;21.00;69.50;;;;;;5012925;28;1367;-68
2022/07/16 05:54:53;;;;;;;;;;;20.90;69.50;;;;;;5012913;28;1274;-69
2022/07/16 05:57:19;;;;;;;;;;;20.90;69.60;;;;;;5011728;28;1902;-68
2022/07/16 05:59:44;;;;;;;;;;;21.00;69.70;;;;;;5013087;28;1298;-67
2022/07/16 06:02:10;;;;;;;;;;;20.90;69.70;;;;;;5013527;28;1296;-69
2022/07/16 06:04:35;;;;;;;;;;;21.00;69.90;;;;;;5028224;28;969;-69
2022/07/16 06:07:01;;;;;;;;;;;20.90;69.80;;;;;;5025065;28;1396;-70
2022/07/16 06:09:26;;;;;;;;;;;20.90;70.00;;;;;;5013043;28;1329;-71
2022/07/16 06:11:51;;;;;;;;;;;20.90;70.00;;;;;;5022183;28;1302;-70
2022/07/16 06:14:17;;;;;;;;;;;20.90;70.00;;;;;;5012388;28;1749;-69
2022/07/16 06:16:42;;;;;;;;;;;20.90;70.00;;;;;;5024063;28;1957;-71
2022/07/16 06:19:08;;;;;;;;;;;20.90;70.00;;;;;;5018199;28;1282;-74
2022/07/16 06:21:33;;;;;;;;;;;21.00;70.20;;;;;;5032061;28;1294;-69
2022/07/16 06:23:59;;;;;;;;;;;21.00;70.20;;;;;;5012380;28;1317;-70
2022/07/16 06:26:24;;;;;;;;;;;20.90;70.20;;;;;;5025679;28;1258;-70
2022/07/16 06:28:50;;;;;;;;;;;20.90;70.20;;;;;;5032299;28;1453;-69
2022/07/16 06:31:15;;;;;;;;;;;21.00;70.30;;;;;;5032205;28;1641;-71
2022/07/16 06:33:40;;;;;;;;;;;21.00;70.30;;;;;;5025228;28;1379;-71
2022/07/16 06:36:06;;;;;;;;;;;20.90;70.30;;;;;;5031254;28;1906;-73
2022/07/16 06:38:32;;;;;;;;;;;20.90;70.30;;;;;;5025914;28;1425;-74
2022/07/16 06:40:57;;;;;;;;;;;21.00;70.40;;;;;;5011409;28;1300;-71
2022/07/16 06:43:23;;;;;;;;;;;21.00;70.40;;;;;;5012658;28;1387;-71
2022/07/16 06:45:48;;;;;;;;;;;21.00;70.50;;;;;;5012283;28;1333;-71
2022/07/16 06:48:14;;;;;;;;;;;20.90;70.50;;;;;;5016974;28;1338;-71
2022/07/16 06:50:39;;;;;;;;;;;21.00;70.50;;;;;;5032101;28;1283;-71
2022/07/16 06:53:06;;;;;;;;;;;21.00;70.50;;;;;;5013180;28;1286;-71
2022/07/16 06:55:31;;;;;;;;;;;20.90;70.50;;;;;;4995016;28;1906;-70
2022/07/16 06:57:56;;;;;;;;;;;21.00;70.60;;;;;;5012308;28;1351;-74
2022/07/16 07:00:22;;;;;;;;;;;21.00;70.60;;;;;;5020569;28;1880;-73
2022/07/16 07:02:47;;;;;;;;;;;20.90;70.50;;;;;;5023651;28;1484;-73
2022/07/16 07:05:13;;;;;;;;;;;21.00;70.70;;;;;;5009264;28;1405;-74
2022/07/16 07:07:38;;;;;;;;;;;20.90;70.50;;;;;;5045636;28;1304;-74
2022/07/16 07:10:04;;;;;;;;;;;21.00;70.60;;;;;;5030798;28;1307;-72
2022/07/16 07:12:30;;;;;;;;;;;20.90;70.60;;;;;;5033240;28;2187;-72
2022/07/16 07:14:55;;;;;;;;;;;21.00;70.60;;;;;;5013421;28;1831;-71
2022/07/16 07:17:20;;;;;;;;;;;21.00;70.80;;;;;;5027653;28;1961;-72
2022/07/16 07:19:46;;;;;;;;;;;21.10;71.20;;;;;;5026268;28;1347;-71
2022/07/16 07:22:11;;;;;;;;;;;21.10;71.30;;;;;;5025223;28;1862;-72
2022/07/16 07:24:37;;;;;;;;;;;21.10;71.30;;;;;;5028318;28;1385;-71
2022/07/16 07:27:02;;;;;;;;;;;21.20;71.40;;;;;;5030966;28;1323;-71
2022/07/16 07:29:28;;;;;;;;;;;21.20;71.30;;;;;;5023203;28;1224;-72
2022/07/16 07:31:53;;;;;;;;;;;21.20;71.30;;;;;;5026235;28;1192;-72
2022/07/16 07:34:19;;;;;;;;;;;21.30;71.40;;;;;;5035340;28;1053;-71
2022/07/16 07:36:44;;;;;;;;;;;21.30;71.30;;;;;;5029525;28;2108;-71
2022/07/16 07:39:09;;;;;;;;;;;21.30;71.40;;;;;;5031112;28;1844;-71
2022/07/16 07:41:35;;;;;;;;;;;21.30;71.10;;;;;;5047740;23;3750;-68
2022/07/16 07:44:00;;;;;;;;;;;21.30;71.00;;;;;;5023649;28;2225;-68
2022/07/16 07:46:26;;;;;;;;;;;21.30;71.00;;;;;;5032494;28;1520;-68
2022/07/16 07:48:52;;;;;;;;;;;21.30;71.00;;;;;;5024024;28;1358;-65
2022/07/16 07:51:18;;;;;;;;;;;21.30;71.10;;;;;;5032366;28;1213;-68
2022/07/16 07:53:43;;;;;;;;;;;21.30;71.10;;;;;;5031143;28;1349;-68
2022/07/16 07:56:10;;;;;;;;;;;21.30;71.20;;;;;;5032995;28;1973;-67
2022/07/16 07:58:36;;;;;;;;;;;21.30;71.20;;;;;;5034668;28;846;-68
2022/07/16 08:01:02;;;;;;;;;;;21.30;71.30;;;;;;5034543;28;890;-68
2022/07/16 08:03:27;;;;;;;;;;;21.30;71.40;;;;;;5034533;28;1241;-67
2022/07/16 08:05:53;;;;;;;;;;;21.30;71.50;;;;;;5033738;28;886;-68
2022/07/16 08:08:18;;;;;;;;;;;21.30;71.50;;;;;;5034488;28;887;-67
2022/07/16 08:10:44;;;;;;;;;;;21.30;71.60;;;;;;5034656;28;1024;-68
2022/07/16 08:13:09;;;;;;;;;;;21.30;71.60;;;;;;5034465;28;1222;-68
2022/07/16 08:15:35;;;;;;;;;;;21.30;71.70;;;;;;5033449;28;1963;-67
2022/07/16 08:18:00;;;;;;;;;;;21.30;71.80;;;;;;5034673;28;823;-68
2022/07/16 08:20:26;;;;;;;;;;;21.30;71.80;;;;;;5033813;28;1390;-68
2022/07/16 08:22:51;;;;;;;;;;;21.30;72.00;;;;;;5032587;28;1191;-67
2022/07/16 08:28:01;;;;;;;;;;;21.30;72.30;;;;;;5034243;28;781;-68
2022/07/16 08:30:26;;;;;;;;;;;21.40;72.30;;;;;;5032887;28;1013;-68
2022/07/16 08:32:52;;;;;;;;;;;21.40;72.20;;;;;;5033678;28;1299;-67
2022/07/16 08:35:17;;;;;;;;;;;21.40;72.40;;;;;;5032927;28;1005;-67
2022/07/16 08:37:43;;;;;;;;;;;21.40;73.50;;;;;;5032812;28;1890;-67
2022/07/16 08:40:10;;;;;;;;;;;21.40;73.50;;;;;;5032963;28;872;-68
2022/07/16 08:42:36;;;;;;;;;;;21.50;73.30;;;;;;5015841;28;1706;-67
2022/07/16 08:45:02;;;;;;;;;;;21.50;73.00;;;;;;5032254;28;824;-67
2022/07/16 08:47:27;;;;;;;;;;;21.50;72.80;;;;;;5033502;28;890;-67
2022/07/16 08:49:53;;;;;;;;;;;21.50;73.30;;;;;;5031907;28;1183;-67
2022/07/16 08:52:19;;;;;;;;;;;21.50;73.50;;;;;;5033818;28;1209;-67
2022/07/16 08:54:45;;;;;;;;;;;21.50;73.50;;;;;;5033372;28;1151;-67
2022/07/16 08:57:10;;;;;;;;;;;21.50;73.50;;;;;;5032199;28;1943;-67
2022/07/16 08:59:36;;;;;;;;;;;21.60;73.60;;;;;;5032732;28;1034;-68
2022/07/16 09:02:01;;;;;;;;;;;21.60;73.30;;;;;;5032474;28;1254;-67
2022/07/16 09:04:27;;;;;;;;;;;21.60;73.00;;;;;;5033173;28;1080;-67
2022/07/16 09:06:52;;;;;;;;;;;21.50;72.90;;;;;;5033598;28;895;-67
2022/07/16 09:09:19;;;;;;;;;;;21.50;72.90;;;;;;5033902;28;828;-67
2022/07/16 09:11:44;;;;;;;;;;;21.50;72.90;;;;;;5033477;28;1270;-67
2022/07/16 09:14:11;;;;;;;;;;;21.50;73.00;;;;;;5032602;28;838;-67
2022/07/16 09:16:40;;;;;;;;;;;21.50;73.00;;;;;;5032043;28;1966;-67
2022/07/16 09:19:19;;;;;;;;;;;21.50;74.30;;;;;;5033497;28;1407;-67
2022/07/16 09:21:59;;;;;;;;;;;21.60;74.10;;;;;;5031720;28;1180;-67
2022/07/16 09:24:38;;;;;;;;;;;21.60;73.70;;;;;;5032728;28;812;-67
2022/07/16 09:27:08;;;;;;;;;;;21.60;73.60;;;;;;5033256;28;1543;-67
2022/07/16 09:29:34;;;;;;;;;;;21.50;73.50;;;;;;5032965;28;895;-67
2022/07/16 09:31:59;;;;;;;;;;;21.50;73.50;;;;;;5032902;28;1212;-67
2022/07/16 09:34:25;;;;;;;;;;;21.50;73.50;;;;;;5032329;28;1025;-67
2022/07/16 09:36:57;;;;;;;;;;;21.50;73.60;;;;;;5033089;28;1910;-67
2022/07/16 09:39:23;;;;;;;;;;;21.50;73.70;;;;;;5033175;28;870;-67
2022/07/16 09:41:48;;;;;;;;;;;21.50;73.80;;;;;;5031299;28;1200;-67
2022/07/16 09:44:17;;;;;;;;;;;21.50;74.50;;;;;;5032754;28;886;-67
2022/07/16 09:46:58;;;;;;;;;;;21.60;75.10;;;;;;5032859;28;850;-67
2022/07/16 09:49:24;;;;;;;;;;;21.60;75.40;;;;;;5033053;28;811;-67
2022/07/16 09:51:49;;;;;;;;;;;21.60;75.40;;;;;;5031722;28;1231;-67
2022/07/16 09:54:26;;;;;;;;;;;21.60;75.30;;;;;;5032228;28;1152;-67
2022/07/16 09:57:11;;;;;;;;;;;21.60;75.20;;;;;;5028994;28;2643;-68
2022/07/16 09:59:37;;;;;;;;;;;21.60;75.20;;;;;;5030995;28;1885;-65
2022/07/16 10:02:03;;;;;;;;;;;21.70;75.20;;;;;;5032431;28;1499;-65
2022/07/16 10:04:28;;;;;;;;;;;21.70;75.10;;;;;;5030917;28;874;-66
2022/07/16 10:06:54;;;;;;;;;;;21.70;75.10;;;;;;5032530;28;871;-65
2022/07/16 10:09:19;;;;;;;;;;;21.70;74.80;;;;;;5033007;28;871;-65
2022/07/16 10:11:45;;;;;;;;;;;21.70;74.80;;;;;;5032701;28;1172;-66
2022/07/16 10:14:10;;;;;;;;;;;21.60;74.80;;;;;;5030396;28;1591;-65
2022/07/16 10:16:40;;;;;;;;;;;21.60;74.90;;;;;;5031366;28;1898;-64
2022/07/16 10:19:05;;;;;;;;;;;21.70;75.10;;;;;;5032442;28;1395;-64
2022/07/16 10:21:31;;;;;;;;;;;21.70;75.10;;;;;;5031125;28;1327;-66
2022/07/16 10:24:04;;;;;;;;;;;21.70;75.10;;;;;;5031615;28;876;-65
2022/07/16 10:26:30;;;;;;;;;;;21.70;75.00;;;;;;5032905;28;1448;-65
2022/07/16 10:28:55;;;;;;;;;;;21.70;75.10;;;;;;5032659;28;788;-66
2022/07/16 10:31:33;;;;;;;;;;;21.70;75.10;;;;;;5032309;28;1252;-64
2022/07/16 10:34:14;;;;;;;;;;;21.70;75.10;;;;;;5031715;28;831;-64
2022/07/16 10:36:46;;;;;;;;;;;21.70;75.00;;;;;;5032058;28;1909;-65
2022/07/16 10:39:14;;;;;;;;;;;21.70;75.20;;;;;;5031158;28;800;-64
2022/07/16 10:42:09;;;;;;;;;;;21.70;75.00;;;;;;5032193;28;1200;-65
2022/07/16 10:44:42;;;;;;;;;;;21.70;74.90;;;;;;5017887;28;1215;-64
2022/07/16 10:47:07;;;;;;;;;;;21.70;74.90;;;;;;5035893;28;835;-64
2022/07/16 10:49:33;;;;;;;;;;;21.70;74.80;;;;;;5035110;28;887;-64
2022/07/16 10:51:58;;;;;;;;;;;21.70;74.80;;;;;;5036095;28;1290;-65
2022/07/16 10:54:31;;;;;;;;;;;21.70;75.20;;;;;;5035480;28;867;-64
2022/07/16 10:57:00;;;;;;;;;;;21.70;75.50;;;;;;5036197;28;1964;-65
2022/07/16 10:59:28;;;;;;;;;;;21.70;75.20;;;;;;5036027;28;820;-64
2022/07/16 11:01:54;;;;;;;;;;;21.70;75.20;;;;;;5035949;28;1195;-64
2022/07/16 11:04:26;;;;;;;;;;;21.70;75.30;;;;;;5035572;28;795;-64
2022/07/16 11:06:52;;;;;;;;;;;21.70;75.20;;;;;;5036037;28;760;-64
2022/07/16 11:09:31;;;;;;;;;;;21.70;75.20;;;;;;5035636;28;941;-65
2022/07/16 11:12:05;;;;;;;;;;;21.70;75.30;;;;;;5034499;28;1282;-64
2022/07/16 11:14:31;;;;;;;;;;;21.70;75.40;;;;;;5035071;28;956;-64
2022/07/16 11:16:57;;;;;;;;;;;21.70;75.40;;;;;;5034243;28;1946;-65
2022/07/16 11:19:22;;;;;;;;;;;21.70;75.40;;;;;;5035786;28;1604;-64
2022/07/16 11:21:54;;;;;;;;;;;21.70;75.40;;;;;;5035444;28;1325;-65
2022/07/16 11:24:20;;;;;;;;;;;21.70;75.40;;;;;;5035152;28;823;-65
2022/07/16 11:26:46;;;;;;;;;;;21.70;75.40;;;;;;5035318;28;1277;-65
2022/07/16 11:29:12;;;;;;;;;;;21.70;75.60;;;;;;5035711;28;786;-65
2022/07/16 11:31:37;;;;;;;;;;;21.70;75.60;;;;;;5035272;28;1200;-65
2022/07/16 11:34:03;;;;;;;;;;;21.70;75.60;;;;;;5034764;28;811;-64
2022/07/16 11:36:29;;;;;;;;;;;21.80;75.60;;;;;;5035329;28;1958;-64
2022/07/16 11:38:55;;;;;;;;;;;21.70;75.50;;;;;;5035411;28;808;-64
2022/07/16 11:41:21;;;;;;;;;;;21.80;75.50;;;;;;5034964;28;1298;-64
2022/07/16 11:43:46;;;;;;;;;;;21.70;75.40;;;;;;5033389;28;853;-64
2022/07/16 11:46:23;;;;;;;;;;;21.70;75.40;;;;;;5033328;28;797;-64
2022/07/16 11:48:48;;;;;;;;;;;21.80;75.50;;;;;;5035181;28;1038;-64
2022/07/16 11:51:14;;;;;;;;;;;21.80;75.50;;;;;;5034795;28;1228;-64
2022/07/16 11:53:39;;;;;;;;;;;21.80;75.50;;;;;;5034772;28;796;-65
2022/07/16 11:56:05;;;;;;;;;;;21.80;75.50;;;;;;5034351;28;1902;-65
2022/07/16 11:58:30;;;;;;;;;;;21.80;75.40;;;;;;5034416;28;791;-64
2022/07/16 12:00:56;;;;;;;;;;;21.80;75.40;;;;;;5033617;28;795;-64
2022/07/16 12:03:22;;;;;;;;;;;21.90;75.40;;;;;;5031054;28;2362;-65
2022/07/16 12:05:47;;;;;;;;;;;21.80;75.30;;;;;;5023301;28;1585;-66
2022/07/16 12:08:13;;;;;;;;;;;21.80;74.60;;;;;;5013510;28;1298;-65
2022/07/16 12:10:38;;;;;;;;;;;21.80;73.60;;;;;;5014839;28;887;-65
2022/07/16 12:13:04;;;;;;;;;;;21.80;74.10;;;;;;5028120;28;1318;-65
2022/07/16 12:15:30;;;;;;;;;;;21.70;72.90;;;;;;5031356;28;1357;-65
2022/07/16 12:17:58;;;;;;;;;;;21.70;72.40;;;;;;5032958;28;1898;-65
2022/07/16 12:20:27;;;;;;;;;;;21.70;69.30;;;;;;5015241;28;1260;-65
2022/07/16 12:22:58;;;;;;;;;;;21.70;69.70;;;;;;5033311;28;1294;-65
2022/07/16 12:25:23;;;;;;;;;;;21.60;69.30;;;;;;5033882;28;1190;-65
2022/07/16 12:27:56;;;;;;;;;;;21.60;65.80;;;;;;5034094;28;832;-65
2022/07/16 12:30:48;;;;;;;;;;;21.50;62.80;;;;;;5032856;28;875;-66
2022/07/16 12:33:23;;;;;;;;;;;21.50;61.70;;;;;;5000883;28;1287;-66
2022/07/16 12:35:57;;;;;;;;;;;21.40;59.50;;;;;;5032684;28;1898;-65
2022/07/16 12:38:45;;;;;;;;;;;21.40;57.80;;;;;;5033768;28;903;-65
2022/07/16 12:41:12;;;;;;;;;;;21.40;59.20;;;;;;5033956;28;884;-65
2022/07/16 12:43:39;;;;;;;;;;;21.30;58.20;;;;;;5033459;28;1240;-65
2022/07/16 12:46:05;;;;;;;;;;;21.30;58.40;;;;;;5033461;28;854;-65
2022/07/16 12:48:30;;;;;;;;;;;21.30;57.80;;;;;;5033281;28;955;-65
2022/07/16 12:50:56;;;;;;;;;;;21.20;57.90;;;;;;5033653;28;796;-64
2022/07/16 12:53:22;;;;;;;;;;;21.20;57.80;;;;;;5033678;28;1299;-64
2022/07/16 12:58:47;;;;;;;;;;;21.20;57.20;;;;;;5033786;28;665;-65
2022/07/16 13:01:12;;;;;;;;;;;21.20;57.10;;;;;;5033502;28;918;-64
2022/07/16 13:03:38;;;;;;;;;;;21.20;56.20;;;;;;5032633;28;1196;-64
2022/07/16 13:06:03;;;;;;;;;;;21.20;55.50;;;;;;5033048;28;879;-66
2022/07/16 13:08:29;;;;;;;;;;;21.30;55.00;;;;;;5032743;28;990;-65
2022/07/16 13:10:54;;;;;;;;;;;21.30;54.60;;;;;;5028371;28;2365;-67
2022/07/16 13:13:20;;;;;;;;;;;21.30;55.70;;;;;;5028895;28;2344;-66
2022/07/16 13:15:45;;;;;;;;;;;21.30;56.30;;;;;;5030488;28;1997;-64
2022/07/16 13:18:11;;;;;;;;;;;21.30;55.70;;;;;;5031682;28;1101;-64
2022/07/16 13:20:36;;;;;;;;;;;21.30;54.60;;;;;;5031826;28;1231;-65
2022/07/16 13:23:02;;;;;;;;;;;21.30;55.90;;;;;;5033126;28;1227;-64
2022/07/16 13:25:28;;;;;;;;;;;21.30;56.90;;;;;;5032436;28;1122;-63
2022/07/16 13:27:53;;;;;;;;;;;21.30;56.50;;;;;;5033160;28;815;-64
2022/07/16 13:30:18;;;;;;;;;;;21.30;56.30;;;;;;5033188;28;816;-65
2022/07/16 13:32:44;;;;;;;;;;;21.30;55.70;;;;;;5031579;28;1208;-64
2022/07/16 13:35:10;;;;;;;;;;;21.30;54.90;;;;;;5032416;28;839;-64
2022/07/16 13:37:35;;;;;;;;;;;21.30;54.70;;;;;;5033351;28;1956;-64
2022/07/16 13:40:01;;;;;;;;;;;21.30;55.60;;;;;;5031699;28;749;-66
2022/07/16 13:42:26;;;;;;;;;;;21.30;55.90;;;;;;5033054;28;1294;-65
2022/07/16 13:44:52;;;;;;;;;;;21.20;55.90;;;;;;5032439;28;887;-65
2022/07/16 13:47:17;;;;;;;;;;;21.20;56.10;;;;;;5032736;28;978;-64
2022/07/16 13:49:43;;;;;;;;;;;21.20;55.70;;;;;;5031668;28;860;-61
2022/07/16 13:52:08;;;;;;;;;;;21.20;55.70;;;;;;5032150;28;1243;-63
2022/07/16 13:54:34;;;;;;;;;;;21.20;54.70;;;;;;5032282;28;893;-65
2022/07/16 13:59:43;;;;;;;;;;;21.20;56.10;;;;;;5032459;28;559;-65
2022/07/16 14:02:08;;;;;;;;;;;21.20;54.20;;;;;;5032049;28;1287;-67
2022/07/16 14:04:34;;;;;;;;;;;21.20;53.40;;;;;;5030440;28;2264;-65
2022/07/16 14:06:59;;;;;;;;;;;21.30;52.70;;;;;;5026822;28;1264;-66
2022/07/16 14:09:25;;;;;;;;;;;21.30;51.70;;;;;;5023448;28;781;-65
2022/07/16 14:11:51;;;;;;;;;;;21.30;52.20;;;;;;5031981;28;1220;-66
2022/07/16 14:14:17;;;;;;;;;;;21.30;53.90;;;;;;5031113;28;656;-67
2022/07/16 14:16:42;;;;;;;;;;;21.30;54.70;;;;;;5031035;28;1969;-66
2022/07/16 14:19:08;;;;;;;;;;;21.30;54.60;;;;;;5031705;28;1190;-65
2022/07/16 14:21:38;;;;;;;;;;;21.20;54.60;;;;;;5034842;28;1306;-65
2022/07/16 14:24:04;;;;;;;;;;;21.20;54.20;;;;;;5035836;28;835;-65
2022/07/16 14:26:30;;;;;;;;;;;21.20;54.00;;;;;;5036477;28;1174;-65
2022/07/16 14:28:57;;;;;;;;;;;21.20;53.50;;;;;;5034597;28;820;-66
2022/07/16 14:31:23;;;;;;;;;;;21.20;53.00;;;;;;5035733;28;1228;-65
2022/07/16 14:33:49;;;;;;;;;;;21.20;52.40;;;;;;5035177;28;878;-66
2022/07/16 14:36:14;;;;;;;;;;;21.20;51.70;;;;;;5033892;28;1902;-66
2022/07/16 14:38:40;;;;;;;;;;;21.20;51.90;;;;;;5036040;28;792;-65
2022/07/16 14:41:05;;;;;;;;;;;21.20;52.20;;;;;;5035850;28;851;-65